createdAt,value
2019-05-03T00:00:25.677Z,80.38
2019-05-03T00:01:25.657Z,80.69
2019-05-03T00:02:25.646Z,80.58
2019-05-03T00:03:25.647Z,80.69
2019-05-03T00:04:25.617Z,80.69
2019-05-03T00:05:25.616Z,80.69
2019-05-03T00:06:25.597Z,80.58
2019-05-03T00:07:25.637Z,80.38
2019-05-03T00:08:25.576Z,80.49
2019-05-03T00:09:25.566Z,80.52
2019-05-03T00:10:25.556Z,80.73
2019-05-03T00:11:25.546Z,81.04
2019-05-03T00:12:25.538Z,80.93
2019-05-03T00:13:25.536Z,81.14
2019-05-03T00:14:25.516Z,81.04
2019-05-03T00:15:25.503Z,81.04
2019-05-03T00:16:25.494Z,80.93
2019-05-03T00:17:25.488Z,81.04
2019-05-03T00:18:25.466Z,80.93
2019-05-03T00:19:25.487Z,80.73
2019-05-03T00:20:25.448Z,80.83
2019-05-03T00:21:25.438Z,81.14
2019-05-03T00:22:25.467Z,81.14
2019-05-03T00:23:25.416Z,81.65
2019-05-03T00:24:25.405Z,81.34
2019-05-03T00:25:25.394Z,81.14
2019-05-03T00:26:25.387Z,81.34
2019-05-03T00:27:25.398Z,81.45
2019-05-03T00:28:25.365Z,81.34
2019-05-03T00:29:25.346Z,81.34
2019-05-03T00:30:25.343Z,81.24
2019-05-03T00:31:25.325Z,81.55
2019-05-03T00:32:25.317Z,81.34
2019-05-03T00:33:25.332Z,81.65
2019-05-03T00:34:25.295Z,81.96
2019-05-03T00:35:25.286Z,81.76
2019-05-03T00:36:25.268Z,82.17
2019-05-03T00:37:25.264Z,82.17
2019-05-03T00:38:25.265Z,81.86
2019-05-03T00:39:25.268Z,81.76
2019-05-03T00:40:25.233Z,81.96
2019-05-03T00:41:25.226Z,82.06
2019-05-03T00:42:25.239Z,82.06
2019-05-03T00:43:25.195Z,82.27
2019-05-03T00:44:25.185Z,82.17
2019-05-03T00:45:25.195Z,81.86
2019-05-03T00:46:25.166Z,82.17
2019-05-03T00:47:25.159Z,82.17
2019-05-03T00:48:25.163Z,82.17
2019-05-03T00:49:25.144Z,82.27
2019-05-03T00:50:25.125Z,82.17
2019-05-03T00:51:25.124Z,82.47
2019-05-03T00:52:25.094Z,82.57
2019-05-03T00:53:25.084Z,82.27
2019-05-03T00:54:25.086Z,82.17
2019-05-03T00:55:25.078Z,81.96
2019-05-03T00:56:25.056Z,82.27
2019-05-03T00:57:25.044Z,82.17
2019-05-03T00:58:25.033Z,82.06
2019-05-03T00:59:25.024Z,82.06
2019-05-03T01:00:25.004Z,82.27
2019-05-03T01:01:24.995Z,82.47
2019-05-03T01:02:26.391Z,82.57
2019-05-03T01:03:24.974Z,82.47
2019-05-03T01:04:24.984Z,82.78
2019-05-03T01:05:24.991Z,82.17
2019-05-03T01:06:24.946Z,81.96
2019-05-03T01:07:24.934Z,82.17
2019-05-03T01:08:24.938Z,82.06
2019-05-03T01:09:24.912Z,82.37
2019-05-03T01:10:24.902Z,82.57
2019-05-03T01:11:24.903Z,83.19
2019-05-03T01:12:24.875Z,82.78
2019-05-03T01:13:24.864Z,82.68
2019-05-03T01:14:24.873Z,82.51
2019-05-03T01:15:24.859Z,82.71
2019-05-03T01:16:24.840Z,82.41
2019-05-03T01:17:24.824Z,82.20
2019-05-03T01:18:24.813Z,81.90
2019-05-03T01:19:24.804Z,82.31
2019-05-03T01:20:24.810Z,82.20
2019-05-03T01:21:24.774Z,82.10
2019-05-03T01:22:24.772Z,82.00
2019-05-03T01:23:24.754Z,82.20
2019-05-03T01:24:24.743Z,81.90
2019-05-03T01:25:32.260Z,82.10
2019-05-03T01:26:25.734Z,82.10
2019-05-03T01:27:24.736Z,81.79
2019-05-03T01:28:24.702Z,81.79
2019-05-03T01:29:24.693Z,81.79
2019-05-03T01:30:24.673Z,82.00
2019-05-03T01:31:24.669Z,81.69
2019-05-03T01:32:24.672Z,80.97
2019-05-03T01:33:24.653Z,81.28
2019-05-03T01:34:24.633Z,81.18
2019-05-03T01:35:24.666Z,81.48
2019-05-03T01:36:24.615Z,81.48
2019-05-03T01:37:24.622Z,81.59
2019-05-03T01:38:24.592Z,81.59
2019-05-03T01:39:24.585Z,81.59
2019-05-03T01:40:24.563Z,81.69
2019-05-03T01:41:24.573Z,81.18
2019-05-03T01:42:24.545Z,81.28
2019-05-03T01:43:24.542Z,81.59
2019-05-03T01:44:24.530Z,81.38
2019-05-03T01:45:24.512Z,80.97
2019-05-03T01:46:24.532Z,80.87
2019-05-03T01:47:24.494Z,81.11
2019-05-03T01:48:24.482Z,80.91
2019-05-03T01:49:24.475Z,81.01
2019-05-03T01:50:24.462Z,81.21
2019-05-03T01:51:24.453Z,81.11
2019-05-03T01:52:24.473Z,81.32
2019-05-03T01:53:24.423Z,81.32
2019-05-03T01:54:24.425Z,80.60
2019-05-03T01:55:24.403Z,80.70
2019-05-03T01:56:24.396Z,80.60
2019-05-03T01:57:24.393Z,80.29
2019-05-03T01:58:24.379Z,80.39
2019-05-03T01:59:24.372Z,80.39
2019-05-03T02:00:24.352Z,80.39
2019-05-03T02:01:24.342Z,80.39
2019-05-03T02:02:24.342Z,80.60
2019-05-03T02:03:24.322Z,80.29
2019-05-03T02:04:24.323Z,80.29
2019-05-03T02:05:24.302Z,80.29
2019-05-03T02:06:24.292Z,80.39
2019-05-03T02:07:24.282Z,80.19
2019-05-03T02:08:24.293Z,80.19
2019-05-03T02:09:24.259Z,80.19
2019-05-03T02:10:24.242Z,80.29
2019-05-03T02:11:24.222Z,79.98
2019-05-03T02:12:24.221Z,79.98
2019-05-03T02:13:24.211Z,80.19
2019-05-03T02:14:24.201Z,80.19
2019-05-03T02:15:24.182Z,80.39
2019-05-03T02:16:24.175Z,80.49
2019-05-03T02:17:24.160Z,80.39
2019-05-03T02:18:24.162Z,80.49
2019-05-03T02:19:24.133Z,80.29
2019-05-03T02:20:24.161Z,80.60
2019-05-03T02:21:24.121Z,80.29
2019-05-03T02:22:24.102Z,80.39
2019-05-03T02:23:24.102Z,80.39
2019-05-03T02:24:24.089Z,80.29
2019-05-03T02:25:24.079Z,80.39
2019-05-03T02:26:24.071Z,80.29
2019-05-03T02:27:24.065Z,80.49
2019-05-03T02:28:24.042Z,80.39
2019-05-03T02:29:24.030Z,80.49
2019-05-03T02:30:24.986Z,80.70
2019-05-03T02:31:24.014Z,80.70
2019-05-03T02:32:24.009Z,80.60
2019-05-03T02:33:23.984Z,80.70
2019-05-03T02:34:24.134Z,80.70
2019-05-03T02:35:23.991Z,81.01
2019-05-03T02:36:23.976Z,80.80
2019-05-03T02:37:23.952Z,80.70
2019-05-03T02:38:23.939Z,80.80
2019-05-03T02:39:23.921Z,80.60
2019-05-03T02:40:24.706Z,80.39
2019-05-03T02:41:23.941Z,80.70
2019-05-03T02:42:26.319Z,81.01
2019-05-03T02:43:26.071Z,80.80
2019-05-03T02:44:26.563Z,80.70
2019-05-03T02:45:25.935Z,80.70
2019-05-03T02:46:25.371Z,80.80
2019-05-03T02:47:26.332Z,80.49
2019-05-03T02:48:25.553Z,80.49
2019-05-03T02:49:25.781Z,80.49
2019-05-03T02:50:26.087Z,80.80
2019-05-03T02:51:25.963Z,80.80
2019-05-03T02:52:25.580Z,80.70
2019-05-03T02:53:25.899Z,80.49
2019-05-03T02:54:26.513Z,80.39
2019-05-03T02:55:26.089Z,80.39
2019-05-03T02:56:25.990Z,80.39
2019-05-03T02:57:25.887Z,80.60
2019-05-03T02:58:25.299Z,80.49
2019-05-03T02:59:26.171Z,80.60
2019-05-03T03:00:25.586Z,80.70
2019-05-03T03:01:26.078Z,80.70
2019-05-03T03:02:26.323Z,80.70
2019-05-03T03:03:25.463Z,80.70
2019-05-03T03:04:25.899Z,80.91
2019-05-03T03:05:25.303Z,81.15
2019-05-03T03:06:26.558Z,81.05
2019-05-03T03:07:25.821Z,80.94
2019-05-03T03:08:25.206Z,80.94
2019-05-03T03:09:25.962Z,80.63
2019-05-03T03:10:26.306Z,80.74
2019-05-03T03:11:26.090Z,80.94
2019-05-03T03:12:25.729Z,80.94
2019-05-03T03:13:25.322Z,80.74
2019-05-03T03:14:25.636Z,80.84
2019-05-03T03:15:25.601Z,80.63
2019-05-03T03:16:25.177Z,80.74
2019-05-03T03:17:25.471Z,80.84
2019-05-03T03:18:25.535Z,80.63
2019-05-03T03:19:25.977Z,80.74
2019-05-03T03:20:25.333Z,80.94
2019-05-03T03:21:25.855Z,80.84
2019-05-03T03:22:25.952Z,80.84
2019-05-03T03:23:26.117Z,80.84
2019-05-03T03:24:25.887Z,80.84
2019-05-03T03:25:25.832Z,80.63
2019-05-03T03:26:34.426Z,80.84
2019-05-03T03:27:25.676Z,80.74
2019-05-03T03:28:25.267Z,80.22
2019-05-03T03:29:25.298Z,80.33
2019-05-03T03:30:28.265Z,80.43
2019-05-03T03:31:28.292Z,80.43
2019-05-03T03:32:28.379Z,80.12
2019-05-03T03:33:28.067Z,80.12
2019-05-03T03:34:27.553Z,80.02
2019-05-03T03:35:29.143Z,78.99
2019-05-03T03:36:50.326Z,79.19
2019-05-03T03:37:25.992Z,79.61
2019-05-03T03:38:25.890Z,79.19
2019-05-03T03:39:25.705Z,79.30
2019-05-03T03:40:25.450Z,79.30
2019-05-03T03:41:24.963Z,79.09
2019-05-03T03:42:25.131Z,79.44
2019-05-03T03:43:25.747Z,79.44
2019-05-03T03:44:25.379Z,79.23
2019-05-03T03:45:25.389Z,78.72
2019-05-03T03:46:25.173Z,79.03
2019-05-03T03:47:23.168Z,78.51
2019-05-03T03:48:23.167Z,78.10
2019-05-03T03:49:23.225Z,78.30
2019-05-03T03:50:25.721Z,77.96
2019-05-03T03:51:23.118Z,78.00
2019-05-03T03:52:25.427Z,78.10
2019-05-03T03:53:23.100Z,78.00
2019-05-03T03:54:25.790Z,78.10
2019-05-03T03:55:26.163Z,78.10
2019-05-03T03:56:25.521Z,78.00
2019-05-03T03:57:25.273Z,78.27
2019-05-03T03:58:23.262Z,78.37
2019-05-03T03:59:26.174Z,78.27
2019-05-03T04:00:25.526Z,78.27
2019-05-03T04:01:23.010Z,78.47
2019-05-03T04:02:26.183Z,78.89
2019-05-03T04:03:25.689Z,78.47
2019-05-03T04:04:25.733Z,78.47
2019-05-03T04:05:25.448Z,78.37
2019-05-03T04:06:22.957Z,78.06
2019-05-03T04:07:22.937Z,77.86
2019-05-03T04:08:25.047Z,78.37
2019-05-03T04:09:25.303Z,77.34
2019-05-03T04:10:22.934Z,76.86
2019-05-03T04:11:22.887Z,76.97
2019-05-03T04:12:26.138Z,77.48
2019-05-03T04:13:25.322Z,76.86
2019-05-03T04:14:25.267Z,76.66
2019-05-03T04:15:25.807Z,76.35
2019-05-03T04:16:25.734Z,76.56
2019-05-03T04:17:25.743Z,76.66
2019-05-03T04:18:25.431Z,76.86
2019-05-03T04:19:24.953Z,76.76
2019-05-03T04:20:25.428Z,76.56
2019-05-03T04:21:25.258Z,76.66
2019-05-03T04:22:25.327Z,76.76
2019-05-03T04:23:22.757Z,76.35
2019-05-03T04:24:22.748Z,76.56
2019-05-03T04:25:22.748Z,76.45
2019-05-03T04:26:27.516Z,76.25
2019-05-03T04:27:27.207Z,76.14
2019-05-03T04:28:25.375Z,76.04
2019-05-03T04:29:25.271Z,75.63
2019-05-03T04:30:25.414Z,75.32
2019-05-03T04:31:22.676Z,74.80
2019-05-03T04:32:25.632Z,74.91
2019-05-03T04:33:26.584Z,74.40
2019-05-03T04:34:22.674Z,74.08
2019-05-03T04:35:22.642Z,73.68
2019-05-03T04:36:22.616Z,73.57
2019-05-03T04:37:22.607Z,73.78
2019-05-03T04:38:25.293Z,72.85
2019-05-03T04:39:25.390Z,72.96
2019-05-03T04:40:22.596Z,72.54
2019-05-03T04:41:22.573Z,72.44
2019-05-03T04:42:25.128Z,72.64
2019-05-03T04:43:22.548Z,72.13
2019-05-03T04:44:22.558Z,72.24
2019-05-03T04:45:22.517Z,72.13
2019-05-03T04:46:22.696Z,71.82
2019-05-03T04:47:22.526Z,72.13
2019-05-03T04:48:25.221Z,71.79
2019-05-03T04:49:22.480Z,71.69
2019-05-03T04:50:25.266Z,71.31
2019-05-03T04:51:22.504Z,71.89
2019-05-03T04:52:25.517Z,71.69
2019-05-03T04:53:22.444Z,71.69
2019-05-03T04:54:25.025Z,71.48
2019-05-03T04:55:22.518Z,71.89
2019-05-03T04:56:22.413Z,71.69
2019-05-03T04:57:39.287Z,71.58
2019-05-03T04:58:25.817Z,71.24
2019-05-03T04:59:25.272Z,71.14
2019-05-03T05:00:25.367Z,71.55
2019-05-03T05:01:22.328Z,71.55
2019-05-03T05:02:22.310Z,71.55
2019-05-03T05:03:22.302Z,71.34
2019-05-03T05:04:22.310Z,71.75
2019-05-03T05:05:25.731Z,71.86
2019-05-03T05:06:22.479Z,71.45
2019-05-03T05:07:22.250Z,70.83
2019-05-03T05:08:22.259Z,70.42
2019-05-03T05:09:22.254Z,70.11
2019-05-03T05:10:22.242Z,70.32
2019-05-03T05:11:22.210Z,70.62
2019-05-03T05:12:24.962Z,70.62
2019-05-03T05:13:24.819Z,70.52
2019-05-03T05:14:22.191Z,70.42
2019-05-03T05:15:22.179Z,70.32
2019-05-03T05:16:22.174Z,70.28
2019-05-03T05:17:22.151Z,70.49
2019-05-03T05:18:22.140Z,69.46
2019-05-03T05:19:22.974Z,69.26
2019-05-03T05:20:22.157Z,69.53
2019-05-03T05:21:22.111Z,68.61
2019-05-03T05:22:22.104Z,67.79
2019-05-03T05:23:22.089Z,67.07
2019-05-03T05:24:22.091Z,65.63
2019-05-03T05:25:22.078Z,65.83
2019-05-03T05:26:22.060Z,66.45
2019-05-03T05:27:22.039Z,66.55
2019-05-03T05:28:22.028Z,67.17
2019-05-03T05:29:22.021Z,66.86
2019-05-03T05:30:22.025Z,67.17
2019-05-03T05:31:21.993Z,67.27
2019-05-03T05:32:21.978Z,67.14
2019-05-03T05:33:22.001Z,66.52
2019-05-03T05:34:21.970Z,66.22
2019-05-03T05:35:21.968Z,64.98
2019-05-03T05:36:21.956Z,64.78
2019-05-03T05:37:21.928Z,65.29
2019-05-03T05:38:21.931Z,65.80
2019-05-03T05:39:21.912Z,64.70
2019-05-03T05:40:21.926Z,65.53
2019-05-03T05:41:21.892Z,65.73
2019-05-03T05:42:21.894Z,64.09
2019-05-03T05:43:21.859Z,64.60
2019-05-03T05:44:21.881Z,65.01
2019-05-03T05:45:21.844Z,63.89
2019-05-03T05:46:21.857Z,63.60
2019-05-03T05:47:21.856Z,64.12
2019-05-03T05:48:21.810Z,62.99
2019-05-03T05:49:21.811Z,63.12
2019-05-03T05:50:21.789Z,63.91
2019-05-03T05:51:21.824Z,63.94
2019-05-03T05:52:24.639Z,63.81
2019-05-03T05:53:21.867Z,63.29
2019-05-03T05:54:21.738Z,63.20
2019-05-03T05:55:21.989Z,62.37
2019-05-03T05:56:21.920Z,63.02
2019-05-03T05:57:22.609Z,63.09
2019-05-03T05:58:21.705Z,62.58
2019-05-03T05:59:21.739Z,63.09
2019-05-03T06:00:21.692Z,63.20
2019-05-03T06:01:21.678Z,63.50
2019-05-03T06:02:21.875Z,64.22
2019-05-03T06:03:21.649Z,63.29
2019-05-03T06:04:21.666Z,63.06
2019-05-03T06:05:21.636Z,61.32
2019-05-03T06:06:21.637Z,61.62
2019-05-03T06:07:21.596Z,62.04
2019-05-03T06:08:21.595Z,61.93
2019-05-03T06:09:21.577Z,62.21
2019-05-03T06:10:21.586Z,61.80
2019-05-03T06:11:21.970Z,61.80
2019-05-03T06:12:21.553Z,61.57
2019-05-03T06:13:21.579Z,61.67
2019-05-03T06:14:21.531Z,60.03
2019-05-03T06:15:24.362Z,60.64
2019-05-03T06:16:21.495Z,60.75
2019-05-03T06:17:21.676Z,60.51
2019-05-03T06:18:21.486Z,59.82
2019-05-03T06:19:21.507Z,59.92
2019-05-03T06:20:21.461Z,60.44
2019-05-03T06:21:21.447Z,60.13
2019-05-03T06:22:21.474Z,59.92
2019-05-03T06:23:21.646Z,60.44
2019-05-03T06:24:21.409Z,60.13
2019-05-03T06:25:21.386Z,60.64
2019-05-03T06:26:21.386Z,60.57
2019-05-03T06:27:21.385Z,60.75
2019-05-03T06:28:21.428Z,60.26
2019-05-03T06:29:21.382Z,60.26
2019-05-03T06:30:21.355Z,60.77
2019-05-03T06:31:22.803Z,61.18
2019-05-03T06:32:21.345Z,61.29
2019-05-03T06:33:21.429Z,61.26
2019-05-03T06:34:21.298Z,61.57
2019-05-03T06:35:21.682Z,61.57
2019-05-03T06:36:21.295Z,60.33
2019-05-03T06:37:21.275Z,59.62
2019-05-03T06:38:21.280Z,59.62
2019-05-03T06:39:21.270Z,60.33
2019-05-03T06:40:21.249Z,59.82
2019-05-03T06:41:21.436Z,60.03
2019-05-03T06:42:22.858Z,60.13
2019-05-03T06:43:21.194Z,59.48
2019-05-03T06:44:27.009Z,58.15
2019-05-03T06:45:22.179Z,58.05
2019-05-03T06:46:25.360Z,58.67
2019-05-03T06:47:22.173Z,58.56
2019-05-03T06:48:22.310Z,58.67
2019-05-03T06:49:22.159Z,58.05
2019-05-03T06:50:27.267Z,57.75
2019-05-03T06:51:22.117Z,58.03
2019-05-03T06:52:27.570Z,57.43
2019-05-03T06:53:22.119Z,58.26
2019-05-03T06:54:28.271Z,58.26
2019-05-03T06:55:22.077Z,57.95
2019-05-03T06:56:24.994Z,58.05
2019-05-03T06:57:22.053Z,57.92
2019-05-03T06:58:32.851Z,57.92
2019-05-03T06:59:22.037Z,57.92
2019-05-03T07:00:21.023Z,57.82
2019-05-03T07:01:21.037Z,57.61
2019-05-03T07:02:20.998Z,58.00
2019-05-03T07:03:20.986Z,57.10
2019-05-03T07:04:20.986Z,56.46
2019-05-03T07:05:20.990Z,56.77
2019-05-03T07:06:33.564Z,56.79
2019-05-03T07:07:21.933Z,56.56
2019-05-03T07:08:20.927Z,56.15
2019-05-03T07:09:20.941Z,56.46
2019-05-03T07:10:20.959Z,56.15
2019-05-03T07:11:20.913Z,56.67
2019-05-03T07:12:20.893Z,55.51
2019-05-03T07:13:20.878Z,53.87
2019-05-03T07:14:20.905Z,54.72
2019-05-03T07:15:20.888Z,55.02
2019-05-03T07:16:20.833Z,55.64
2019-05-03T07:17:20.833Z,55.30
2019-05-03T07:18:20.823Z,56.02
2019-05-03T07:19:20.825Z,56.23
2019-05-03T07:20:20.804Z,55.38
2019-05-03T07:21:20.782Z,55.18
2019-05-03T07:22:20.772Z,54.74
2019-05-03T07:23:20.773Z,54.74
2019-05-03T07:24:20.784Z,53.62
2019-05-03T07:25:20.785Z,54.36
2019-05-03T07:26:20.733Z,55.08
2019-05-03T07:27:20.731Z,54.85
2019-05-03T07:28:20.721Z,54.36
2019-05-03T07:29:20.705Z,54.77
2019-05-03T07:30:20.705Z,54.87
2019-05-03T07:31:20.696Z,55.69
2019-05-03T07:32:20.672Z,56.30
2019-05-03T07:33:20.664Z,56.20
2019-05-03T07:34:20.685Z,56.07
2019-05-03T07:35:20.628Z,55.46
2019-05-03T07:36:20.636Z,55.56
2019-05-03T07:37:20.612Z,55.46
2019-05-03T07:38:20.656Z,54.23
2019-05-03T07:39:20.604Z,54.23
2019-05-03T07:40:20.609Z,54.87
2019-05-03T07:41:20.620Z,55.28
2019-05-03T07:42:20.570Z,54.67
2019-05-03T07:43:20.541Z,55.28
2019-05-03T07:44:20.562Z,54.87
2019-05-03T07:45:20.523Z,54.77
2019-05-03T07:46:20.545Z,54.77
2019-05-03T07:47:20.522Z,54.46
2019-05-03T07:48:20.493Z,53.85
2019-05-03T07:49:20.475Z,53.92
2019-05-03T07:50:20.477Z,53.41
2019-05-03T07:51:20.480Z,51.67
2019-05-03T07:52:20.461Z,52.59
2019-05-03T07:53:20.442Z,52.57
2019-05-03T07:54:20.432Z,51.24
2019-05-03T07:55:20.411Z,51.04
2019-05-03T07:56:20.442Z,50.40
2019-05-03T07:57:20.399Z,50.20
2019-05-03T07:58:20.389Z,49.19
2019-05-03T07:59:20.384Z,49.81
2019-05-03T08:00:20.358Z,49.30
2019-05-03T08:01:20.368Z,49.19
2019-05-03T08:02:20.374Z,49.79
2019-05-03T08:03:20.340Z,49.79
2019-05-03T08:04:20.339Z,49.87
2019-05-03T08:05:20.302Z,49.87
2019-05-03T08:06:20.287Z,49.55
2019-05-03T08:07:22.881Z,49.15
2019-05-03T08:08:20.280Z,48.86
2019-05-03T08:09:20.265Z,49.27
2019-05-03T08:10:20.251Z,49.55
2019-05-03T08:11:20.239Z,49.58
2019-05-03T08:12:20.231Z,49.96
2019-05-03T08:13:20.222Z,50.37
2019-05-03T08:14:20.200Z,50.48
2019-05-03T08:15:20.200Z,49.15
2019-05-03T08:16:20.190Z,49.17
2019-05-03T08:17:20.169Z,49.07
2019-05-03T08:18:20.170Z,49.07
2019-05-03T08:19:23.335Z,49.89
2019-05-03T08:20:21.141Z,50.07
2019-05-03T08:21:20.148Z,50.48
2019-05-03T08:22:20.124Z,49.96
2019-05-03T08:23:27.322Z,49.25
2019-05-03T08:24:21.088Z,49.66
2019-05-03T08:25:20.094Z,48.64
2019-05-03T08:26:20.082Z,48.74
2019-05-03T08:27:20.083Z,48.84
2019-05-03T08:28:20.063Z,47.39
2019-05-03T08:29:20.059Z,46.16
2019-05-03T08:30:20.021Z,47.19
2019-05-03T08:31:20.033Z,46.86
2019-05-03T08:32:20.014Z,46.86
2019-05-03T08:33:20.010Z,47.16
2019-05-03T08:34:20.002Z,47.29
2019-05-03T08:35:19.968Z,48.31
2019-05-03T08:36:19.969Z,47.60
2019-05-03T08:37:19.968Z,48.13
2019-05-03T08:38:19.927Z,48.54
2019-05-03T08:39:19.920Z,48.76
2019-05-03T08:40:19.933Z,49.17
2019-05-03T08:41:19.910Z,49.17
2019-05-03T08:42:19.921Z,48.74
2019-05-03T08:43:19.888Z,49.15
2019-05-03T08:44:19.878Z,49.66
2019-05-03T08:45:19.912Z,48.82
2019-05-03T08:46:19.868Z,49.51
2019-05-03T08:47:19.858Z,48.67
2019-05-03T08:48:19.832Z,47.37
2019-05-03T08:49:19.817Z,47.88
2019-05-03T08:50:21.587Z,48.16
2019-05-03T08:51:19.816Z,47.73
2019-05-03T08:52:19.787Z,46.71
2019-05-03T08:53:19.785Z,46.30
2019-05-03T08:54:19.776Z,45.39
2019-05-03T08:55:19.768Z,44.46
2019-05-03T08:56:19.757Z,44.46
2019-05-03T08:57:19.726Z,44.26
2019-05-03T08:58:19.721Z,44.78
2019-05-03T08:59:29.120Z,44.98
2019-05-03T09:00:20.728Z,45.18
2019-05-03T09:01:19.701Z,45.40
2019-05-03T09:02:19.676Z,45.31
2019-05-03T09:03:19.688Z,44.79
2019-05-03T09:04:19.657Z,45.94
2019-05-03T09:05:19.651Z,45.94
2019-05-03T09:06:19.647Z,46.88
2019-05-03T09:07:19.688Z,46.98
2019-05-03T09:08:19.619Z,46.67
2019-05-03T09:09:19.630Z,46.66
2019-05-03T09:10:19.600Z,47.27
2019-05-03T09:11:30.597Z,46.73
2019-05-03T09:12:20.575Z,46.14
2019-05-03T09:13:19.556Z,46.34
2019-05-03T09:14:19.549Z,46.94
2019-05-03T09:15:21.692Z,46.92
2019-05-03T09:16:19.644Z,45.16
2019-05-03T09:17:19.510Z,43.43
2019-05-03T09:18:19.521Z,44.32
2019-05-03T09:19:19.498Z,41.47
2019-05-03T09:20:19.507Z,42.68
2019-05-03T09:21:19.466Z,42.16
2019-05-03T09:22:19.457Z,42.08
2019-05-03T09:23:19.457Z,42.51
2019-05-03T09:24:19.436Z,42.82
2019-05-03T09:25:19.431Z,43.04
2019-05-03T09:26:19.431Z,43.04
2019-05-03T09:27:19.406Z,43.44
2019-05-03T09:28:19.408Z,43.75
2019-05-03T09:29:19.385Z,43.67
2019-05-03T09:30:19.366Z,44.18
2019-05-03T09:31:19.384Z,44.41
2019-05-03T09:32:19.386Z,45.02
2019-05-03T09:33:19.355Z,45.40
2019-05-03T09:34:19.363Z,46.33
2019-05-03T09:35:29.742Z,45.61
2019-05-03T09:36:20.305Z,45.31
2019-05-03T09:37:19.328Z,44.67
2019-05-03T09:38:19.302Z,44.98
2019-05-03T09:39:19.265Z,43.73
2019-05-03T09:40:19.260Z,43.23
2019-05-03T09:41:19.267Z,43.12
2019-05-03T09:42:19.246Z,43.00
2019-05-03T09:43:19.225Z,42.90
2019-05-03T09:44:19.215Z,41.16
2019-05-03T09:45:19.212Z,41.55
2019-05-03T09:46:19.206Z,42.16
2019-05-03T09:47:19.201Z,42.49
2019-05-03T09:48:19.172Z,41.75
2019-05-03T09:49:19.155Z,41.55
2019-05-03T09:50:19.188Z,42.27
2019-05-03T09:51:19.160Z,42.06
2019-05-03T09:52:19.118Z,43.02
2019-05-03T09:53:19.104Z,43.10
2019-05-03T09:54:19.107Z,41.78
2019-05-03T09:55:19.135Z,41.39
2019-05-03T09:56:19.106Z,42.21
2019-05-03T09:57:19.083Z,42.30
2019-05-03T09:58:19.069Z,42.92
2019-05-03T09:59:19.064Z,43.63
2019-05-03T10:00:19.039Z,44.34
2019-05-03T10:01:19.059Z,44.46
2019-05-03T10:02:19.018Z,44.98
2019-05-03T10:03:19.013Z,45.16
2019-05-03T10:04:19.034Z,44.34
2019-05-03T10:05:18.994Z,43.84
2019-05-03T10:06:18.981Z,43.61
2019-05-03T10:07:18.964Z,43.61
2019-05-03T10:08:18.968Z,42.98
2019-05-03T10:09:18.966Z,41.43
2019-05-03T10:10:18.933Z,41.63
2019-05-03T10:11:18.917Z,41.02
2019-05-03T10:12:18.916Z,41.21
2019-05-03T10:13:23.537Z,41.61
2019-05-03T10:14:19.878Z,40.88
2019-05-03T10:15:18.895Z,40.58
2019-05-03T10:16:18.854Z,40.50
2019-05-03T10:17:18.911Z,41.00
2019-05-03T10:18:18.853Z,41.82
2019-05-03T10:19:18.826Z,41.02
2019-05-03T10:20:18.825Z,40.82
2019-05-03T10:21:18.813Z,40.62
2019-05-03T10:22:18.891Z,40.64
2019-05-03T10:23:18.795Z,40.53
2019-05-03T10:24:18.796Z,41.47
2019-05-03T10:25:18.768Z,41.88
2019-05-03T10:26:18.791Z,41.49
2019-05-03T10:27:18.764Z,42.10
2019-05-03T10:28:18.764Z,42.21
2019-05-03T10:29:18.724Z,42.51
2019-05-03T10:30:18.704Z,43.02
2019-05-03T10:31:18.762Z,42.30
2019-05-03T10:32:18.715Z,41.78
2019-05-03T10:33:18.703Z,40.57
2019-05-03T10:34:18.670Z,41.59
2019-05-03T10:35:19.174Z,41.89
2019-05-03T10:36:18.667Z,42.08
2019-05-03T10:37:18.652Z,42.71
2019-05-03T10:38:18.629Z,42.61
2019-05-03T10:39:18.632Z,43.23
2019-05-03T10:40:18.623Z,42.51
2019-05-03T10:41:18.595Z,42.71
2019-05-03T10:42:18.563Z,42.61
2019-05-03T10:43:18.583Z,43.02
2019-05-03T10:44:18.593Z,43.32
2019-05-03T10:45:18.549Z,43.12
2019-05-03T10:46:18.541Z,43.02
2019-05-03T10:47:18.536Z,43.10
2019-05-03T10:48:18.513Z,43.30
2019-05-03T10:49:18.496Z,42.77
2019-05-03T10:50:18.511Z,42.55
2019-05-03T10:51:18.476Z,42.96
2019-05-03T10:52:18.530Z,42.33
2019-05-03T10:53:18.454Z,42.74
2019-05-03T10:54:18.497Z,41.92
2019-05-03T10:55:18.484Z,41.39
2019-05-03T10:56:23.118Z,42.22
2019-05-03T10:57:19.404Z,42.13
2019-05-03T10:58:18.468Z,42.25
2019-05-03T10:59:18.395Z,41.45
2019-05-03T11:00:42.462Z,42.06
2019-05-03T11:01:19.471Z,41.78
2019-05-03T11:02:18.383Z,42.92
2019-05-03T11:03:18.349Z,42.82
2019-05-03T11:04:18.388Z,43.02
2019-05-03T11:05:18.352Z,42.61
2019-05-03T11:06:18.311Z,42.16
2019-05-03T11:07:18.327Z,41.66
2019-05-03T11:08:18.307Z,42.04
2019-05-03T11:09:18.297Z,41.21
2019-05-03T11:10:18.345Z,41.49
2019-05-03T11:11:18.273Z,40.68
2019-05-03T11:12:18.242Z,39.95
2019-05-03T11:13:18.255Z,38.45
2019-05-03T11:14:18.218Z,39.46
2019-05-03T11:15:18.212Z,39.34
2019-05-03T11:16:18.231Z,39.44
2019-05-03T11:17:18.191Z,39.62
2019-05-03T11:18:18.202Z,39.22
2019-05-03T11:19:18.170Z,37.80
2019-05-03T11:20:28.131Z,37.49
2019-05-03T11:21:28.210Z,37.29
2019-05-03T11:22:19.146Z,37.82
2019-05-03T11:23:18.194Z,38.12
2019-05-03T11:24:18.142Z,38.22
2019-05-03T11:25:18.110Z,38.54
2019-05-03T11:26:18.095Z,38.85
2019-05-03T11:27:18.091Z,38.24
2019-05-03T11:28:18.087Z,38.46
2019-05-03T11:29:18.059Z,38.56
2019-05-03T11:30:18.083Z,38.95
2019-05-03T11:31:18.063Z,38.85
2019-05-03T11:32:18.022Z,38.34
2019-05-03T11:33:18.030Z,38.46
2019-05-03T11:34:18.784Z,39.17
2019-05-03T11:35:17.999Z,39.69
2019-05-03T11:36:18.205Z,39.58
2019-05-03T11:37:17.974Z,40.30
2019-05-03T11:38:18.277Z,39.28
2019-05-03T11:39:17.976Z,40.19
2019-05-03T11:40:18.259Z,40.91
2019-05-03T11:41:29.473Z,40.48
2019-05-03T11:42:19.692Z,40.58
2019-05-03T11:43:17.910Z,40.48
2019-05-03T11:44:17.937Z,40.56
2019-05-03T11:45:17.891Z,39.97
2019-05-03T11:46:17.888Z,40.07
2019-05-03T11:47:17.887Z,39.46
2019-05-03T11:48:18.327Z,39.07
2019-05-03T11:49:17.853Z,39.58
2019-05-03T11:50:18.483Z,40.19
2019-05-03T11:51:17.831Z,40.39
2019-05-03T11:52:17.827Z,40.50
2019-05-03T11:53:32.666Z,40.91
2019-05-03T11:54:17.891Z,40.80
2019-05-03T11:55:17.790Z,40.72
2019-05-03T11:56:17.810Z,40.09
2019-05-03T11:57:17.760Z,40.80
2019-05-03T11:58:17.769Z,41.52
2019-05-03T11:59:17.739Z,42.10
2019-05-03T12:00:17.722Z,39.97
2019-05-03T12:01:20.096Z,40.66
2019-05-03T12:02:17.741Z,40.86
2019-05-03T12:03:17.701Z,40.16
2019-05-03T12:04:17.696Z,39.95
2019-05-03T12:05:17.671Z,39.83
2019-05-03T12:06:17.651Z,39.73
2019-05-03T12:07:18.535Z,40.34
2019-05-03T12:08:17.668Z,40.84
2019-05-03T12:09:17.621Z,40.95
2019-05-03T12:10:33.277Z,40.22
2019-05-03T12:11:18.621Z,40.22
2019-05-03T12:12:17.596Z,40.00
2019-05-03T12:13:17.580Z,36.68
2019-05-03T12:14:17.581Z,37.51
2019-05-03T12:15:17.562Z,38.22
2019-05-03T12:16:26.302Z,39.24
2019-05-03T12:17:25.813Z,39.26
2019-05-03T12:18:19.089Z,38.95
2019-05-03T12:19:21.416Z,39.46
2019-05-03T12:20:20.080Z,39.85
2019-05-03T12:21:19.016Z,40.36
2019-05-03T12:22:17.954Z,40.86
2019-05-03T12:23:17.989Z,39.73
2019-05-03T12:24:17.946Z,39.93
2019-05-03T12:25:18.052Z,39.73
2019-05-03T12:26:18.181Z,39.30
2019-05-03T12:27:17.425Z,38.18
2019-05-03T12:28:17.413Z,38.79
2019-05-03T12:29:17.400Z,39.51
2019-05-03T12:30:17.415Z,38.59
2019-05-03T12:31:29.639Z,38.31
2019-05-03T12:32:18.372Z,38.00
2019-05-03T12:33:17.417Z,38.29
2019-05-03T12:34:17.375Z,39.51
2019-05-03T12:35:17.357Z,38.18
2019-05-03T12:36:17.348Z,38.59
2019-05-03T12:37:17.323Z,39.10
2019-05-03T12:38:17.300Z,38.51
2019-05-03T12:39:26.366Z,39.32
2019-05-03T12:40:18.391Z,39.22
2019-05-03T12:41:17.272Z,37.27
2019-05-03T12:42:18.794Z,36.95
2019-05-03T12:43:17.274Z,37.26
2019-05-03T12:44:17.271Z,37.56
2019-05-03T12:45:17.266Z,37.96
2019-05-03T12:46:17.219Z,37.34
2019-05-03T12:47:17.215Z,37.24
2019-05-03T12:48:17.331Z,37.42
2019-05-03T12:49:17.200Z,38.32
2019-05-03T12:50:17.209Z,37.91
2019-05-03T12:51:17.159Z,37.51
2019-05-03T12:52:17.698Z,37.81